sensor_id;sensor_type;location;lat;lon;timestamp;pressure;altitude;pressure_sealevel;temperature;humidity
54554;BME280;40450;55.848;-3.572;2023-02-18T00:01:36;99026.39;;;10.16;73.41
54554;BME280;40450;55.848;-3.572;2023-02-18T00:04:08;99012.77;;;9.43;73.90
54554;BME280;40450;55.848;-3.572;2023-02-18T00:06:37;99014.54;;;7.59;78.91
54554;BME280;40450;55.848;-3.572;2023-02-18T00:09:07;99003.47;;;7.98;78.58
54554;BME280;40450;55.848;-3.572;2023-02-18T00:11:38;98984.05;;;9.01;76.66
54554;BME280;40450;55.848;-3.572;2023-02-18T00:14:12;98995.17;;;5.00;86.58
54554;BME280;40450;55.848;-3.572;2023-02-18T00:16:39;98992.98;;;5.44;85.84
54554;BME280;40450;55.848;-3.572;2023-02-18T00:19:11;98982.81;;;5.38;86.77
54554;BME280;40450;55.848;-3.572;2023-02-18T00:21:40;98976.80;;;4.84;88.89
54554;BME280;40450;55.848;-3.572;2023-02-18T00:24:12;98966.73;;;3.80;90.53
54554;BME280;40450;55.848;-3.572;2023-02-18T00:26:41;98961.84;;;1.55;96.58
54554;BME280;40450;55.848;-3.572;2023-02-18T00:29:11;98976.38;;;0.01;99.59
54554;BME280;40450;55.848;-3.572;2023-02-18T00:31:41;98972.84;;;0.43;99.75
54554;BME280;40450;55.848;-3.572;2023-02-18T00:34:12;98970.28;;;0.36;100.00
54554;BME280;40450;55.848;-3.572;2023-02-18T00:36:42;98953.90;;;0.30;100.00
54554;BME280;40450;55.848;-3.572;2023-02-18T00:39:12;98941.01;;;2.38;97.42
54554;BME280;40450;55.848;-3.572;2023-02-18T00:41:43;98939.27;;;0.21;100.00
54554;BME280;40450;55.848;-3.572;2023-02-18T00:44:13;98937.40;;;-0.12;100.00
54554;BME280;40450;55.848;-3.572;2023-02-18T00:46:44;98932.19;;;-0.23;100.00
54554;BME280;40450;55.848;-3.572;2023-02-18T00:49:14;98926.27;;;-0.27;100.00
54554;BME280;40450;55.848;-3.572;2023-02-18T00:51:44;98922.89;;;-0.81;100.00
54554;BME280;40450;55.848;-3.572;2023-02-18T00:54:15;98913.97;;;1.24;100.00
54554;BME280;40450;55.848;-3.572;2023-02-18T00:56:45;98909.31;;;2.63;98.55
54554;BME280;40450;55.848;-3.572;2023-02-18T00:59:15;98904.06;;;3.98;97.37
54554;BME280;40450;55.848;-3.572;2023-02-18T01:01:46;98897.63;;;0.48;100.00
54554;BME280;40450;55.848;-3.572;2023-02-18T01:04:17;98884.59;;;1.74;98.83
54554;BME280;40450;55.848;-3.572;2023-02-18T01:06:47;98877.12;;;1.62;98.70
54554;BME280;40450;55.848;-3.572;2023-02-18T01:09:17;98871.71;;;-0.63;100.00
54554;BME280;40450;55.848;-3.572;2023-02-18T01:11:48;98865.95;;;-0.34;100.00
54554;BME280;40450;55.848;-3.572;2023-02-18T01:14:18;98867.16;;;-1.31;100.00
54554;BME280;40450;55.848;-3.572;2023-02-18T01:16:48;98844.79;;;-0.22;100.00
54554;BME280;40450;55.848;-3.572;2023-02-18T01:19:19;98837.83;;;-0.94;100.00
54554;BME280;40450;55.848;-3.572;2023-02-18T01:21:49;98827.87;;;-1.36;100.00
54554;BME280;40450;55.848;-3.572;2023-02-18T01:24:20;98812.68;;;-0.85;100.00
54554;BME280;40450;55.848;-3.572;2023-02-18T01:26:50;98802.01;;;-0.18;100.00
54554;BME280;40450;55.848;-3.572;2023-02-18T01:29:21;98792.54;;;0.97;100.00
54554;BME280;40450;55.848;-3.572;2023-02-18T01:31:51;98789.86;;;1.29;99.98
54554;BME280;40450;55.848;-3.572;2023-02-18T01:34:22;98795.34;;;-0.83;100.00
54554;BME280;40450;55.848;-3.572;2023-02-18T01:36:52;98797.83;;;2.08;100.00
54554;BME280;40450;55.848;-3.572;2023-02-18T01:39:23;98793.93;;;1.00;100.00
54554;BME280;40450;55.848;-3.572;2023-02-18T01:41:53;98792.47;;;3.71;97.23
54554;BME280;40450;55.848;-3.572;2023-02-18T01:44:25;98783.77;;;2.13;98.11
54554;BME280;40450;55.848;-3.572;2023-02-18T01:46:54;98784.65;;;-1.43;100.00
54554;BME280;40450;55.848;-3.572;2023-02-18T01:49:27;98764.84;;;-1.30;100.00
54554;BME280;40450;55.848;-3.572;2023-02-18T01:51:57;98765.59;;;2.38;98.26
54554;BME280;40450;55.848;-3.572;2023-02-18T01:54:29;98762.74;;;3.81;98.14
54554;BME280;40450;55.848;-3.572;2023-02-18T01:56:58;98743.47;;;2.48;97.05
54554;BME280;40450;55.848;-3.572;2023-02-18T01:59:29;98721.38;;;2.34;98.66
54554;BME280;40450;55.848;-3.572;2023-02-18T02:01:57;98720.19;;;4.98;95.39
54554;BME280;40450;55.848;-3.572;2023-02-18T02:04:27;98724.74;;;3.57;96.31
54554;BME280;40450;55.848;-3.572;2023-02-18T02:06:57;98723.39;;;1.88;98.64
54554;BME280;40450;55.848;-3.572;2023-02-18T02:09:30;98722.20;;;3.39;95.92
54554;BME280;40450;55.848;-3.572;2023-02-18T02:12:11;98707.21;;;3.93;94.15
54554;BME280;40450;55.848;-3.572;2023-02-18T02:14:42;98693.01;;;3.64;95.05
54554;BME280;40450;55.848;-3.572;2023-02-18T02:17:03;98680.16;;;4.32;95.02
54554;BME280;40450;55.848;-3.572;2023-02-18T02:27:10;98690.41;;;2.41;96.45
54554;BME280;40450;55.848;-3.572;2023-02-18T02:32:13;98684.83;;;2.98;96.55
54554;BME280;40450;55.848;-3.572;2023-02-18T02:34:40;98667.24;;;5.86;92.07
54554;BME280;40450;55.848;-3.572;2023-02-18T02:37:10;98663.26;;;6.89;87.18
54554;BME280;40450;55.848;-3.572;2023-02-18T02:39:39;98667.01;;;6.19;89.01
54554;BME280;40450;55.848;-3.572;2023-02-18T02:42:08;98653.54;;;7.55;89.35
54554;BME280;40450;55.848;-3.572;2023-02-18T02:44:40;98637.75;;;8.54;86.21
54554;BME280;40450;55.848;-3.572;2023-02-18T02:47:08;98660.96;;;8.77;86.43
54554;BME280;40450;55.848;-3.572;2023-02-18T02:49:41;98666.99;;;2.06;96.51
54554;BME280;40450;55.848;-3.572;2023-02-18T02:52:11;98653.16;;;5.60;90.20
54554;BME280;40450;55.848;-3.572;2023-02-18T02:54:35;98661.33;;;4.48;92.90
54554;BME280;40450;55.848;-3.572;2023-02-18T02:59:39;98674.81;;;1.88;98.10
54554;BME280;40450;55.848;-3.572;2023-02-18T03:02:17;98658.11;;;4.85;92.41
54554;BME280;40450;55.848;-3.572;2023-02-18T03:07:17;98653.76;;;7.24;86.64
54554;BME280;40450;55.848;-3.572;2023-02-18T03:09:48;98645.08;;;6.02;89.36
54554;BME280;40450;55.848;-3.572;2023-02-18T03:12:15;98634.06;;;5.31;90.87
54554;BME280;40450;55.848;-3.572;2023-02-18T03:14:46;98632.73;;;6.85;88.70
54554;BME280;40450;55.848;-3.572;2023-02-18T03:17:14;98628.49;;;7.40;87.30
54554;BME280;40450;55.848;-3.572;2023-02-18T03:19:46;98626.35;;;7.48;87.27
54554;BME280;40450;55.848;-3.572;2023-02-18T03:22:14;98635.99;;;6.82;87.91
54554;BME280;40450;55.848;-3.572;2023-02-18T03:24:42;98631.48;;;6.88;88.47
54554;BME280;40450;55.848;-3.572;2023-02-18T03:27:14;98622.80;;;6.38;90.59
54554;BME280;40450;55.848;-3.572;2023-02-18T03:29:44;98629.65;;;5.77;93.54
54554;BME280;40450;55.848;-3.572;2023-02-18T03:32:16;98622.51;;;6.61;92.73
54554;BME280;40450;55.848;-3.572;2023-02-18T03:34:47;98628.04;;;5.88;95.68
54554;BME280;40450;55.848;-3.572;2023-02-18T03:37:13;98629.54;;;6.13;96.39
54554;BME280;40450;55.848;-3.572;2023-02-18T03:39:46;98636.39;;;6.22;96.69
54554;BME280;40450;55.848;-3.572;2023-02-18T03:42:15;98636.96;;;5.98;98.13
54554;BME280;40450;55.848;-3.572;2023-02-18T03:44:44;98644.32;;;5.80;98.86
54554;BME280;40450;55.848;-3.572;2023-02-18T03:47:14;98645.77;;;6.48;97.80
54554;BME280;40450;55.848;-3.572;2023-02-18T03:49:45;98639.07;;;6.52;97.62
54554;BME280;40450;55.848;-3.572;2023-02-18T03:52:15;98639.68;;;5.98;98.90
54554;BME280;40450;55.848;-3.572;2023-02-18T03:54:45;98649.59;;;6.88;97.37
54554;BME280;40450;55.848;-3.572;2023-02-18T03:57:16;98665.19;;;6.00;98.30
54554;BME280;40450;55.848;-3.572;2023-02-18T03:59:46;98673.75;;;3.61;100.00
54554;BME280;40450;55.848;-3.572;2023-02-18T04:02:17;98666.49;;;4.37;98.70
54554;BME280;40450;55.848;-3.572;2023-02-18T04:04:47;98680.96;;;3.44;100.00
54554;BME280;40450;55.848;-3.572;2023-02-18T04:07:17;98673.99;;;4.24;98.97
54554;BME280;40450;55.848;-3.572;2023-02-18T04:09:48;98673.36;;;6.45;95.96
54554;BME280;40450;55.848;-3.572;2023-02-18T04:12:18;98684.65;;;3.23;100.00
54554;BME280;40450;55.848;-3.572;2023-02-18T04:14:48;98668.61;;;5.91;97.13
54554;BME280;40450;55.848;-3.572;2023-02-18T04:17:19;98664.77;;;5.80;97.01
54554;BME280;40450;55.848;-3.572;2023-02-18T04:19:49;98655.92;;;7.42;95.49
54554;BME280;40450;55.848;-3.572;2023-02-18T04:22:20;98658.34;;;7.12;94.31
54554;BME280;40450;55.848;-3.572;2023-02-18T04:24:50;98662.59;;;7.05;94.23
54554;BME280;40450;55.848;-3.572;2023-02-18T04:27:21;98659.88;;;7.33;94.56
54554;BME280;40450;55.848;-3.572;2023-02-18T04:29:51;98666.25;;;6.40;95.30
54554;BME280;40450;55.848;-3.572;2023-02-18T04:32:21;98667.79;;;6.54;95.66
54554;BME280;40450;55.848;-3.572;2023-02-18T04:34:52;98661.64;;;6.20;96.25
54554;BME280;40450;55.848;-3.572;2023-02-18T04:37:22;98664.31;;;6.47;95.77
54554;BME280;40450;55.848;-3.572;2023-02-18T04:39:52;98655.40;;;7.04;94.21
54554;BME280;40450;55.848;-3.572;2023-02-18T04:42:22;98670.51;;;6.76;95.11
54554;BME280;40450;55.848;-3.572;2023-02-18T04:44:53;98676.82;;;6.65;94.93
54554;BME280;40450;55.848;-3.572;2023-02-18T04:47:24;98687.92;;;6.27;96.01
54554;BME280;40450;55.848;-3.572;2023-02-18T04:49:54;98684.93;;;6.27;96.40
54554;BME280;40450;55.848;-3.572;2023-02-18T04:52:24;98693.97;;;6.37;96.01
54554;BME280;40450;55.848;-3.572;2023-02-18T04:54:54;98696.65;;;6.33;96.16
54554;BME280;40450;55.848;-3.572;2023-02-18T04:57:25;98695.26;;;6.75;95.88
54554;BME280;40450;55.848;-3.572;2023-02-18T04:59:55;98706.35;;;5.93;97.18
54554;BME280;40450;55.848;-3.572;2023-02-18T05:02:26;98698.67;;;6.45;96.18
54554;BME280;40450;55.848;-3.572;2023-02-18T05:04:56;98695.59;;;6.18;96.47
54554;BME280;40450;55.848;-3.572;2023-02-18T05:07:26;98702.76;;;6.98;95.42
54554;BME280;40450;55.848;-3.572;2023-02-18T05:09:57;98696.62;;;6.77;95.56
54554;BME280;40450;55.848;-3.572;2023-02-18T05:12:27;98693.40;;;6.97;95.51
54554;BME280;40450;55.848;-3.572;2023-02-18T05:14:58;98693.17;;;7.08;95.04
54554;BME280;40450;55.848;-3.572;2023-02-18T05:17:28;98694.76;;;6.98;95.63
54554;BME280;40450;55.848;-3.572;2023-02-18T05:19:59;98692.15;;;6.30;96.38
54554;BME280;40450;55.848;-3.572;2023-02-18T05:22:29;98707.49;;;6.27;96.51
54554;BME280;40450;55.848;-3.572;2023-02-18T05:24:59;98724.56;;;4.46;100.00
54554;BME280;40450;55.848;-3.572;2023-02-18T05:27:29;98748.91;;;3.30;100.00
54554;BME280;40450;55.848;-3.572;2023-02-18T05:30:00;98754.33;;;3.59;100.00
54554;BME280;40450;55.848;-3.572;2023-02-18T05:32:30;98738.83;;;4.32;100.00
54554;BME280;40450;55.848;-3.572;2023-02-18T05:35:01;98741.30;;;5.89;98.20
54554;BME280;40450;55.848;-3.572;2023-02-18T05:37:31;98742.95;;;5.61;98.05
54554;BME280;40450;55.848;-3.572;2023-02-18T05:40:02;98736.22;;;5.96;97.91
54554;BME280;40450;55.848;-3.572;2023-02-18T05:42:32;98739.84;;;5.75;97.84
54554;BME280;40450;55.848;-3.572;2023-02-18T05:45:03;98741.47;;;5.43;99.18
54554;BME280;40450;55.848;-3.572;2023-02-18T05:47:33;98756.49;;;5.10;100.00
54554;BME280;40450;55.848;-3.572;2023-02-18T05:50:04;98751.20;;;5.85;98.28
54554;BME280;40450;55.848;-3.572;2023-02-18T05:52:33;98754.31;;;6.56;97.96
54554;BME280;40450;55.848;-3.572;2023-02-18T05:55:04;98756.85;;;4.92;100.00
54554;BME280;40450;55.848;-3.572;2023-02-18T05:57:34;98755.49;;;5.83;99.32
54554;BME280;40450;55.848;-3.572;2023-02-18T06:00:06;98749.28;;;6.36;98.40
54554;BME280;40450;55.848;-3.572;2023-02-18T06:02:35;98742.11;;;6.48;98.37
54554;BME280;40450;55.848;-3.572;2023-02-18T06:05:06;98752.95;;;6.69;96.75
54554;BME280;40450;55.848;-3.572;2023-02-18T06:07:36;98752.31;;;6.70;97.61
54554;BME280;40450;55.848;-3.572;2023-02-18T06:10:07;98756.50;;;6.40;98.44
54554;BME280;40450;55.848;-3.572;2023-02-18T06:12:36;98760.92;;;6.63;97.68
54554;BME280;40450;55.848;-3.572;2023-02-18T06:15:07;98767.83;;;6.24;98.87
54554;BME280;40450;55.848;-3.572;2023-02-18T06:17:37;98771.49;;;6.15;99.09
54554;BME280;40450;55.848;-3.572;2023-02-18T06:20:08;98777.69;;;5.42;100.00
54554;BME280;40450;55.848;-3.572;2023-02-18T06:22:38;98763.19;;;6.12;99.15
54554;BME280;40450;55.848;-3.572;2023-02-18T06:25:08;98765.92;;;6.48;98.73
54554;BME280;40450;55.848;-3.572;2023-02-18T06:27:38;98781.75;;;6.34;98.71
54554;BME280;40450;55.848;-3.572;2023-02-18T06:30:09;98773.55;;;5.86;99.27
54554;BME280;40450;55.848;-3.572;2023-02-18T06:32:39;98773.54;;;6.80;97.94
54554;BME280;40450;55.848;-3.572;2023-02-18T06:35:10;98771.60;;;6.52;98.38
54554;BME280;40450;55.848;-3.572;2023-02-18T06:37:40;98782.55;;;5.20;99.84
54554;BME280;40450;55.848;-3.572;2023-02-18T06:40:11;98779.84;;;6.64;98.11
54554;BME280;40450;55.848;-3.572;2023-02-18T06:42:40;98787.27;;;5.96;99.05
54554;BME280;40450;55.848;-3.572;2023-02-18T06:45:11;98790.59;;;6.67;97.70
54554;BME280;40450;55.848;-3.572;2023-02-18T06:47:41;98796.84;;;6.00;98.53
54554;BME280;40450;55.848;-3.572;2023-02-18T06:50:11;98802.65;;;6.39;97.84
54554;BME280;40450;55.848;-3.572;2023-02-18T06:52:42;98812.97;;;6.17;98.44
54554;BME280;40450;55.848;-3.572;2023-02-18T06:55:12;98815.39;;;6.61;97.57
54554;BME280;40450;55.848;-3.572;2023-02-18T06:57:43;98814.38;;;6.53;97.85
54554;BME280;40450;55.848;-3.572;2023-02-18T07:00:13;98820.36;;;6.80;97.43
54554;BME280;40450;55.848;-3.572;2023-02-18T07:02:43;98828.71;;;7.07;96.13
54554;BME280;40450;55.848;-3.572;2023-02-18T07:05:13;98833.41;;;6.82;96.90
54554;BME280;40450;55.848;-3.572;2023-02-18T07:07:44;98837.72;;;7.28;96.40
54554;BME280;40450;55.848;-3.572;2023-02-18T07:10:14;98840.97;;;8.07;94.56
54554;BME280;40450;55.848;-3.572;2023-02-18T07:12:44;98843.81;;;6.95;96.87
54554;BME280;40450;55.848;-3.572;2023-02-18T07:15:15;98855.92;;;6.95;96.62
54554;BME280;40450;55.848;-3.572;2023-02-18T07:17:45;98855.49;;;6.71;97.23
54554;BME280;40450;55.848;-3.572;2023-02-18T07:20:16;98858.30;;;7.31;96.19
54554;BME280;40450;55.848;-3.572;2023-02-18T07:22:47;98861.39;;;6.77;97.25
54554;BME280;40450;55.848;-3.572;2023-02-18T07:25:17;98876.18;;;6.07;98.24
54554;BME280;40450;55.848;-3.572;2023-02-18T07:27:46;98879.93;;;5.68;99.36
54554;BME280;40450;55.848;-3.572;2023-02-18T07:30:17;98878.27;;;5.86;99.30
54554;BME280;40450;55.848;-3.572;2023-02-18T07:32:47;98884.37;;;6.25;98.61
54554;BME280;40450;55.848;-3.572;2023-02-18T07:35:18;98887.97;;;6.34;98.39
54554;BME280;40450;55.848;-3.572;2023-02-18T07:37:49;98888.07;;;6.55;97.85
54554;BME280;40450;55.848;-3.572;2023-02-18T07:40:20;98899.43;;;6.19;98.61
54554;BME280;40450;55.848;-3.572;2023-02-18T07:42:48;98900.64;;;6.59;98.59
54554;BME280;40450;55.848;-3.572;2023-02-18T07:45:19;98907.21;;;8.61;95.54
54554;BME280;40450;55.848;-3.572;2023-02-18T07:47:49;98907.47;;;7.83;95.91
54554;BME280;40450;55.848;-3.572;2023-02-18T07:50:19;98922.80;;;7.81;95.14
54554;BME280;40450;55.848;-3.572;2023-02-18T07:52:49;98921.91;;;6.91;97.02
54554;BME280;40450;55.848;-3.572;2023-02-18T07:55:20;98932.47;;;6.98;96.70
54554;BME280;40450;55.848;-3.572;2023-02-18T07:57:50;98934.46;;;6.22;99.15
54554;BME280;40450;55.848;-3.572;2023-02-18T08:00:22;98941.21;;;6.84;98.23
54554;BME280;40450;55.848;-3.572;2023-02-18T08:02:51;98949.30;;;6.77;98.60
54554;BME280;40450;55.848;-3.572;2023-02-18T08:05:22;98956.33;;;6.35;98.63
54554;BME280;40450;55.848;-3.572;2023-02-18T08:07:52;98981.41;;;3.45;100.00
54554;BME280;40450;55.848;-3.572;2023-02-18T08:10:22;98999.69;;;2.17;100.00
54554;BME280;40450;55.848;-3.572;2023-02-18T08:12:53;98990.88;;;0.27;100.00
54554;BME280;40450;55.848;-3.572;2023-02-18T08:15:23;99006.14;;;2.61;100.00
54554;BME280;40450;55.848;-3.572;2023-02-18T08:17:53;99031.06;;;-0.90;100.00
54554;BME280;40450;55.848;-3.572;2023-02-18T08:20:24;99045.55;;;-1.46;100.00
54554;BME280;40450;55.848;-3.572;2023-02-18T08:22:54;99030.15;;;-2.71;100.00
54554;BME280;40450;55.848;-3.572;2023-02-18T08:25:24;99063.48;;;-0.71;100.00
54554;BME280;40450;55.848;-3.572;2023-02-18T08:27:55;99071.98;;;-2.09;100.00
54554;BME280;40450;55.848;-3.572;2023-02-18T08:30:26;99075.75;;;-2.13;100.00
54554;BME280;40450;55.848;-3.572;2023-02-18T08:32:55;99064.82;;;-1.42;100.00
54554;BME280;40450;55.848;-3.572;2023-02-18T08:35:26;99069.16;;;-2.41;100.00
54554;BME280;40450;55.848;-3.572;2023-02-18T08:37:56;99064.08;;;-2.89;100.00
54554;BME280;40450;55.848;-3.572;2023-02-18T08:40:26;99068.26;;;-3.72;100.00
54554;BME280;40450;55.848;-3.572;2023-02-18T08:42:57;99070.76;;;-1.71;100.00
54554;BME280;40450;55.848;-3.572;2023-02-18T08:45:27;99066.92;;;-0.80;100.00
54554;BME280;40450;55.848;-3.572;2023-02-18T08:47:58;99073.01;;;-1.19;100.00
54554;BME280;40450;55.848;-3.572;2023-02-18T08:50:28;99081.67;;;0.16;100.00
54554;BME280;40450;55.848;-3.572;2023-02-18T08:52:59;99089.64;;;-0.24;100.00
54554;BME280;40450;55.848;-3.572;2023-02-18T08:55:29;99101.88;;;1.12;100.00
54554;BME280;40450;55.848;-3.572;2023-02-18T08:58:00;99100.12;;;0.91;100.00
54554;BME280;40450;55.848;-3.572;2023-02-18T09:00:30;99110.86;;;-0.80;100.00
54554;BME280;40450;55.848;-3.572;2023-02-18T09:03:00;99124.12;;;-0.96;100.00
54554;BME280;40450;55.848;-3.572;2023-02-18T09:05:31;99129.63;;;0.96;100.00
54554;BME280;40450;55.848;-3.572;2023-02-18T09:08:01;99137.69;;;0.24;100.00
54554;BME280;40450;55.848;-3.572;2023-02-18T09:10:32;99149.33;;;1.06;100.00
54554;BME280;40450;55.848;-3.572;2023-02-18T09:13:02;99154.09;;;1.47;100.00
54554;BME280;40450;55.848;-3.572;2023-02-18T09:15:32;99154.89;;;2.17;100.00
54554;BME280;40450;55.848;-3.572;2023-02-18T09:18:03;99154.66;;;3.12;99.40
54554;BME280;40450;55.848;-3.572;2023-02-18T09:20:34;99170.15;;;-1.71;100.00
54554;BME280;40450;55.848;-3.572;2023-02-18T09:23:03;99176.65;;;-2.23;100.00
54554;BME280;40450;55.848;-3.572;2023-02-18T09:25:34;99174.05;;;-2.75;100.00
54554;BME280;40450;55.848;-3.572;2023-02-18T09:28:05;99180.15;;;-1.96;100.00
54554;BME280;40450;55.848;-3.572;2023-02-18T09:30:35;99185.88;;;-0.63;100.00
54554;BME280;40450;55.848;-3.572;2023-02-18T09:33:05;99197.21;;;-1.90;100.00
54554;BME280;40450;55.848;-3.572;2023-02-18T09:35:38;99203.05;;;-0.17;100.00
54554;BME280;40450;55.848;-3.572;2023-02-18T09:38:07;99208.76;;;-0.84;100.00
54554;BME280;40450;55.848;-3.572;2023-02-18T09:40:40;99211.36;;;1.87;100.00
54554;BME280;40450;55.848;-3.572;2023-02-18T09:43:17;99206.70;;;-0.02;100.00
54554;BME280;40450;55.848;-3.572;2023-02-18T09:45:38;99207.33;;;-1.10;100.00
54554;BME280;40450;55.848;-3.572;2023-02-18T09:48:08;99208.59;;;-2.24;100.00
54554;BME280;40450;55.848;-3.572;2023-02-18T09:50:38;99205.78;;;0.44;100.00
54554;BME280;40450;55.848;-3.572;2023-02-18T09:53:11;99203.69;;;-1.47;100.00
54554;BME280;40450;55.848;-3.572;2023-02-18T09:55:39;99204.00;;;-3.18;100.00
54554;BME280;40450;55.848;-3.572;2023-02-18T09:58:13;99201.95;;;0.15;100.00
54554;BME280;40450;55.848;-3.572;2023-02-18T10:00:42;99204.12;;;0.61;100.00
54554;BME280;40450;55.848;-3.572;2023-02-18T10:03:13;99218.98;;;0.22;100.00
54554;BME280;40450;55.848;-3.572;2023-02-18T10:05:49;99227.98;;;-0.97;100.00
54554;BME280;40450;55.848;-3.572;2023-02-18T10:08:18;99232.96;;;-0.40;100.00
54554;BME280;40450;55.848;-3.572;2023-02-18T10:10:44;99238.93;;;0.16;100.00
54554;BME280;40450;55.848;-3.572;2023-02-18T10:13:14;99240.52;;;-0.84;100.00
54554;BME280;40450;55.848;-3.572;2023-02-18T10:15:43;99228.58;;;3.00;100.00
54554;BME280;40450;55.848;-3.572;2023-02-18T10:18:22;99231.11;;;3.35;99.64
54554;BME280;40450;55.848;-3.572;2023-02-18T10:20:44;99231.10;;;4.88;97.88
54554;BME280;40450;55.848;-3.572;2023-02-18T10:23:14;99226.60;;;4.58;96.88
54554;BME280;40450;55.848;-3.572;2023-02-18T10:25:45;99231.98;;;1.11;100.00
54554;BME280;40450;55.848;-3.572;2023-02-18T10:28:20;99232.47;;;1.86;100.00
54554;BME280;40450;55.848;-3.572;2023-02-18T10:30:48;99234.06;;;-0.60;100.00
54554;BME280;40450;55.848;-3.572;2023-02-18T10:33:26;99234.47;;;1.14;100.00
54554;BME280;40450;55.848;-3.572;2023-02-18T10:35:51;99236.24;;;0.84;100.00
54554;BME280;40450;55.848;-3.572;2023-02-18T10:38:22;99248.15;;;-0.84;100.00
54554;BME280;40450;55.848;-3.572;2023-02-18T10:40:56;99252.29;;;-0.51;100.00
54554;BME280;40450;55.848;-3.572;2023-02-18T10:43:23;99253.81;;;1.51;100.00
54554;BME280;40450;55.848;-3.572;2023-02-18T10:45:53;99259.92;;;1.51;100.00
54554;BME280;40450;55.848;-3.572;2023-02-18T10:48:37;99263.55;;;0.47;100.00
54554;BME280;40450;55.848;-3.572;2023-02-18T10:50:49;99260.78;;;1.38;100.00
54554;BME280;40450;55.848;-3.572;2023-02-18T10:53:26;99260.07;;;1.46;100.00
54554;BME280;40450;55.848;-3.572;2023-02-18T10:55:49;99264.58;;;-0.36;100.00
54554;BME280;40450;55.848;-3.572;2023-02-18T10:58:26;99261.25;;;-0.58;100.00
54554;BME280;40450;55.848;-3.572;2023-02-18T11:00:50;99261.15;;;-1.18;100.00
54554;BME280;40450;55.848;-3.572;2023-02-18T11:03:22;99258.01;;;0.02;100.00
54554;BME280;40450;55.848;-3.572;2023-02-18T11:05:54;99255.11;;;-0.42;100.00
54554;BME280;40450;55.848;-3.572;2023-02-18T11:08:24;99261.74;;;-1.94;100.00
54554;BME280;40450;55.848;-3.572;2023-02-18T11:10:53;99262.23;;;0.19;100.00
54554;BME280;40450;55.848;-3.572;2023-02-18T11:13:26;99256.72;;;0.24;100.00
54554;BME280;40450;55.848;-3.572;2023-02-18T11:15:57;99260.22;;;-0.65;100.00
54554;BME280;40450;55.848;-3.572;2023-02-18T11:18:32;99264.52;;;-0.70;100.00
54554;BME280;40450;55.848;-3.572;2023-02-18T11:20:55;99265.99;;;0.28;100.00
54554;BME280;40450;55.848;-3.572;2023-02-18T11:23:24;99266.87;;;0.32;100.00
54554;BME280;40450;55.848;-3.572;2023-02-18T11:25:58;99272.18;;;2.15;100.00
54554;BME280;40450;55.848;-3.572;2023-02-18T11:28:30;99265.03;;;1.41;100.00
54554;BME280;40450;55.848;-3.572;2023-02-18T11:30:56;99270.07;;;-0.07;100.00
54554;BME280;40450;55.848;-3.572;2023-02-18T11:33:32;99269.61;;;0.50;100.00
54554;BME280;40450;55.848;-3.572;2023-02-18T11:35:57;99272.47;;;-1.52;100.00
54554;BME280;40450;55.848;-3.572;2023-02-18T11:38:33;99270.71;;;-1.23;100.00
54554;BME280;40450;55.848;-3.572;2023-02-18T11:41:01;99268.26;;;1.62;100.00
54554;BME280;40450;55.848;-3.572;2023-02-18T11:43:30;99269.09;;;1.05;100.00
54554;BME280;40450;55.848;-3.572;2023-02-18T11:48:28;99267.25;;;5.37;100.00
54554;BME280;40450;55.848;-3.572;2023-02-18T11:51:00;99277.37;;;2.52;99.50
54554;BME280;40450;55.848;-3.572;2023-02-18T11:53:31;99271.32;;;2.93;98.98
54554;BME280;40450;55.848;-3.572;2023-02-18T11:56:01;99266.29;;;5.28;95.95
54554;BME280;40450;55.848;-3.572;2023-02-18T11:58:36;99273.04;;;1.60;100.00
54554;BME280;40450;55.848;-3.572;2023-02-18T12:01:02;99263.37;;;0.97;100.00
54554;BME280;40450;55.848;-3.572;2023-02-18T12:03:36;99266.79;;;2.29;100.00
54554;BME280;40450;55.848;-3.572;2023-02-18T12:06:03;99271.24;;;2.31;100.00
54554;BME280;40450;55.848;-3.572;2023-02-18T12:08:34;99257.32;;;4.45;97.13
54554;BME280;40450;55.848;-3.572;2023-02-18T12:11:06;99260.33;;;3.12;99.21
54554;BME280;40450;55.848;-3.572;2023-02-18T12:13:34;99258.69;;;3.99;97.18
54554;BME280;40450;55.848;-3.572;2023-02-18T12:16:09;99263.63;;;2.15;100.00
54554;BME280;40450;55.848;-3.572;2023-02-18T12:18:42;99260.63;;;1.58;100.00
54554;BME280;40450;55.848;-3.572;2023-02-18T12:21:14;99254.71;;;3.91;99.49
54554;BME280;40450;55.848;-3.572;2023-02-18T12:23:39;99258.72;;;1.35;100.00
54554;BME280;40450;55.848;-3.572;2023-02-18T12:26:13;99266.58;;;2.41;100.00
54554;BME280;40450;55.848;-3.572;2023-02-18T12:28:44;99263.62;;;1.78;100.00
54554;BME280;40450;55.848;-3.572;2023-02-18T12:31:16;99262.54;;;2.71;100.00
54554;BME280;40450;55.848;-3.572;2023-02-18T12:33:44;99266.28;;;2.27;100.00
54554;BME280;40450;55.848;-3.572;2023-02-18T12:36:12;99257.06;;;3.16;99.07
54554;BME280;40450;55.848;-3.572;2023-02-18T12:41:16;99268.96;;;3.57;99.53
54554;BME280;40450;55.848;-3.572;2023-02-18T12:43:46;99263.04;;;4.58;96.72
54554;BME280;40450;55.848;-3.572;2023-02-18T12:46:20;99265.98;;;2.11;100.00
54554;BME280;40450;55.848;-3.572;2023-02-18T12:51:16;99265.04;;;2.00;100.00
54554;BME280;40450;55.848;-3.572;2023-02-18T12:53:52;99255.31;;;4.29;97.82
54554;BME280;40450;55.848;-3.572;2023-02-18T12:58:47;99252.17;;;2.92;99.26
54554;BME280;40450;55.848;-3.572;2023-02-18T13:01:18;99256.14;;;2.10;100.00
54554;BME280;40450;55.848;-3.572;2023-02-18T13:03:53;99251.76;;;3.94;99.20
54554;BME280;40450;55.848;-3.572;2023-02-18T13:06:21;99256.66;;;2.46;100.00
54554;BME280;40450;55.848;-3.572;2023-02-18T13:08:49;99251.07;;;1.70;100.00
54554;BME280;40450;55.848;-3.572;2023-02-18T13:11:19;99246.32;;;2.83;100.00
54554;BME280;40450;55.848;-3.572;2023-02-18T13:13:48;99240.98;;;5.36;97.27
54554;BME280;40450;55.848;-3.572;2023-02-18T13:16:14;99239.71;;;4.73;97.54
54554;BME280;40450;55.848;-3.572;2023-02-18T13:18:46;99234.94;;;5.28;96.44
54554;BME280;40450;55.848;-3.572;2023-02-18T13:21:14;99241.69;;;2.69;100.00
54554;BME280;40450;55.848;-3.572;2023-02-18T13:23:49;99235.43;;;4.87;97.56
54554;BME280;40450;55.848;-3.572;2023-02-18T13:26:15;99239.09;;;2.69;100.00
54554;BME280;40450;55.848;-3.572;2023-02-18T13:28:50;99232.50;;;2.89;100.00
54554;BME280;40450;55.848;-3.572;2023-02-18T13:31:26;99227.23;;;5.50;96.23
54554;BME280;40450;55.848;-3.572;2023-02-18T13:33:51;99242.32;;;5.70;96.18